Time;durP1;ratioP1;P1;durP2;ratioP2;P2;SDS_P1;SDS_P2;PMS_P1;PMS_P2;Temp;Humidity;BMP_temperature;BMP_pressure;BME280_temperature;BME280_humidity;BME280_pressure;Samples;Min_cycle;Max_cycle;Signal;HPM_P1;HPM_P2
2022/01/25 00:09:49;;;;;;;71.20;33.05;;;4.00;99.90;;;;;;5038130;28;20052;-88
2022/01/25 00:29:03;;;;;;;67.05;33.42;;;3.90;99.90;;;;;;5051517;28;20186;-89
2022/01/25 00:31:31;;;;;;;70.35;33.67;;;3.90;99.90;;;;;;5025075;28;20150;-87
2022/01/25 00:33:56;;;;;;;72.95;33.90;;;3.90;99.90;;;;;;5050319;28;20131;-89
2022/01/25 00:36:25;;;;;;;75.18;34.55;;;3.90;99.90;;;;;;5051438;28;20494;-88
2022/01/25 00:38:51;;;;;;;70.75;32.25;;;3.90;99.90;;;;;;5032243;28;20049;-91
2022/01/25 00:41:18;;;;;;;72.20;34.28;;;3.90;99.90;;;;;;5050266;28;20049;-88
2022/01/25 00:43:45;;;;;;;76.50;35.53;;;4.00;99.90;;;;;;5051074;28;20075;-88
2022/01/25 00:46:12;;;;;;;73.40;34.00;;;3.90;99.90;;;;;;5051437;28;20479;-88
2022/01/25 00:54:01;;;;;;;73.57;34.70;;;3.90;99.90;;;;;;5042126;28;20410;-89
2022/01/25 00:56:36;;;;;;;69.72;33.17;;;3.90;99.90;;;;;;5036511;28;20059;-88
2022/01/25 00:59:04;;;;;;;69.35;32.40;;;3.90;99.90;;;;;;5050309;28;20053;-87
2022/01/25 01:01:32;;;;;;;70.05;31.63;;;3.90;99.90;;;;;;5051054;28;20057;-88
2022/01/25 01:03:58;;;;;;;69.60;32.50;;;3.90;99.90;;;;;;5034474;28;20478;-88
2022/01/25 01:06:24;;;;;;;73.55;33.13;;;3.90;99.90;;;;;;5035055;28;20052;-88
2022/01/25 01:08:50;;;;;;;72.10;32.83;;;3.90;99.90;;;;;;5034531;28;20037;-87
2022/01/25 01:11:24;;;;;;;68.07;32.97;;;3.90;99.90;;;;;;5051389;28;20064;-88
2022/01/25 01:14:00;;;;;;;66.70;32.10;;;3.90;99.90;;;;;;5035380;28;20053;-88
2022/01/25 01:33:36;;;;;;;74.70;33.45;;;3.90;99.90;;;;;;5029798;28;20110;-88
2022/01/25 01:48:48;;;;;;;70.13;34.10;;;3.80;99.90;;;;;;5050169;28;20041;-87
2022/01/25 01:51:13;;;;;;;72.85;34.63;;;3.80;99.90;;;;;;5029396;28;20045;-87
2022/01/25 01:53:40;;;;;;;74.75;33.58;;;3.90;99.90;;;;;;5046613;28;20045;-89
2022/01/25 01:56:06;;;;;;;73.38;36.00;;;3.80;99.90;;;;;;5054337;28;20052;-88
2022/01/25 01:58:35;;;;;;;70.60;34.28;;;3.80;99.90;;;;;;5037182;28;20041;-90
2022/01/25 02:01:02;;;;;;;78.32;36.80;;;3.80;99.90;;;;;;5052093;28;20053;-88
2022/01/25 02:03:28;;;;;;;75.75;36.05;;;3.80;99.90;;;;;;5054334;28;20080;-88
2022/01/25 02:05:53;;;;;;;74.85;35.30;;;3.80;99.90;;;;;;5037653;28;20084;-87
2022/01/25 02:08:19;;;;;;;74.50;34.83;;;3.80;99.90;;;;;;5037973;28;20049;-87
2022/01/25 02:10:45;;;;;;;80.20;35.00;;;3.90;99.90;;;;;;5053893;28;20055;-91
2022/01/25 02:13:12;;;;;;;74.28;34.47;;;3.90;99.90;;;;;;5037510;28;20041;-87
2022/01/25 02:15:44;;;;;;;74.75;34.60;;;3.80;99.90;;;;;;5052886;28;20095;-88
2022/01/25 02:23:37;;;;;;;74.00;36.42;;;3.80;99.90;;;;;;5051246;28;20061;-89
2022/01/25 02:26:05;;;;;;;73.68;35.05;;;3.90;99.90;;;;;;5034068;28;20052;-88
2022/01/25 02:28:37;;;;;;;73.55;35.00;;;3.80;99.90;;;;;;5036095;28;20046;-89
2022/01/25 02:31:04;;;;;;;79.15;34.70;;;3.80;99.90;;;;;;5049027;28;20049;-89
2022/01/25 02:33:31;;;;;;;78.47;35.30;;;3.90;99.90;;;;;;5053978;28;20229;-88
2022/01/25 02:36:01;;;;;;;73.78;34.85;;;3.70;99.90;;;;;;5030881;28;20046;-87
2022/01/25 02:38:29;;;;;;;76.10;34.58;;;3.80;99.90;;;;;;5034251;28;20490;-88
2022/01/25 02:40:58;;;;;;;78.65;35.97;;;3.90;99.90;;;;;;5041980;28;20045;-88
2022/01/25 02:43:25;;;;;;;77.80;36.33;;;3.80;99.90;;;;;;5051759;28;20080;-88
2022/01/25 02:48:31;;;;;;;71.25;35.10;;;3.80;99.90;;;;;;5044420;28;20041;-88
2022/01/25 02:51:01;;;;;;;76.85;35.42;;;3.80;99.90;;;;;;5041504;28;20057;-89
2022/01/25 02:53:30;;;;;;;72.25;33.92;;;3.80;99.90;;;;;;5036643;28;20068;-87
2022/01/25 02:55:56;;;;;;;77.22;35.85;;;3.80;99.90;;;;;;5032966;28;20053;-88
2022/01/25 02:58:22;;;;;;;79.45;37.30;;;3.80;99.90;;;;;;5016248;28;20045;-89
2022/01/25 03:00:48;;;;;;;83.85;37.90;;;3.80;99.90;;;;;;5044921;28;20057;-88
2022/01/25 03:03:14;;;;;;;74.82;35.83;;;3.80;99.90;;;;;;5034615;28;20041;-88
2022/01/25 03:05:40;;;;;;;76.80;35.92;;;3.80;99.90;;;;;;5053170;28;20131;-87
2022/01/25 03:08:08;;;;;;;76.55;37.20;;;3.80;99.90;;;;;;5049605;28;20069;-87
2022/01/25 03:10:40;;;;;;;77.43;35.20;;;3.80;99.90;;;;;;5034486;28;20049;-88
2022/01/25 03:13:11;;;;;;;80.28;36.00;;;3.80;99.90;;;;;;5026652;28;20057;-88
2022/01/25 03:15:57;;;;;;;76.43;35.67;;;3.80;99.90;;;;;;5036489;28;20053;-90
2022/01/25 03:21:02;;;;;;;78.85;36.58;;;3.80;99.90;;;;;;5052796;28;20053;-90
2022/01/25 03:23:30;;;;;;;79.95;36.35;;;3.80;99.90;;;;;;5053809;28;20060;-89
2022/01/25 03:25:55;;;;;;;77.72;36.55;;;3.80;99.90;;;;;;5045539;28;20045;-90
2022/01/25 03:28:22;;;;;;;72.65;35.40;;;3.70;99.90;;;;;;5050839;28;20057;-90
2022/01/25 03:30:48;;;;;;;83.40;37.47;;;3.70;99.90;;;;;;5051255;28;20147;-90
2022/01/25 03:33:15;;;;;;;78.75;36.58;;;3.70;99.90;;;;;;5016537;28;20280;-88
2022/01/25 03:35:45;;;;;;;78.70;37.35;;;3.70;99.90;;;;;;5021814;28;20048;-88
2022/01/25 03:38:14;;;;;;;77.80;36.55;;;3.70;99.90;;;;;;5052395;28;20056;-89
2022/01/25 03:40:44;;;;;;;80.97;37.30;;;3.70;99.90;;;;;;5052327;28;20478;-89
2022/01/25 03:43:14;;;;;;;79.57;35.33;;;3.80;99.90;;;;;;5020186;28;20132;-90
2022/01/25 03:45:44;;;;;;;79.22;35.88;;;3.70;99.90;;;;;;5051499;28;20475;-89
2022/01/25 03:50:36;;;;;;;78.13;35.88;;;3.70;99.90;;;;;;5052236;28;20114;-89
2022/01/25 03:53:04;;;;;;;80.75;38.47;;;3.70;99.90;;;;;;5060337;28;20079;-90
2022/01/25 03:55:30;;;;;;;79.13;37.53;;;3.70;99.90;;;;;;5052410;28;20072;-89
2022/01/25 03:57:56;;;;;;;83.28;37.42;;;3.70;99.90;;;;;;5052482;28;20134;-91
2022/01/25 04:00:22;;;;;;;83.15;36.92;;;3.70;99.90;;;;;;5050397;28;20537;-89
2022/01/25 04:03:02;;;;;;;79.72;37.63;;;3.70;99.90;;;;;;5018509;28;20050;-90
2022/01/25 04:08:13;;;;;;;74.78;34.70;;;3.70;99.90;;;;;;5049028;28;20077;-90
2022/01/25 04:10:39;;;;;;;82.28;37.03;;;3.70;99.90;;;;;;5032895;28;20041;-90
2022/01/25 04:13:06;;;;;;;78.80;35.67;;;3.80;99.90;;;;;;5047511;28;20050;-90
2022/01/25 04:15:32;;;;;;;79.65;36.78;;;3.70;99.90;;;;;;5052399;28;20045;-90
2022/01/25 04:18:13;;;;;;;83.45;36.08;;;3.70;99.90;;;;;;5052429;28;20045;-90
2022/01/25 04:20:41;;;;;;;81.88;36.45;;;3.70;99.90;;;;;;5051220;28;20042;-90
2022/01/25 04:25:50;;;;;;;81.07;37.08;;;3.70;99.90;;;;;;5050444;28;20124;-89
2022/01/25 04:28:16;;;;;;;80.53;37.03;;;3.70;99.90;;;;;;5031340;28;20124;-89
2022/01/25 04:30:42;;;;;;;77.68;36.17;;;3.70;99.90;;;;;;5011504;28;20482;-90
2022/01/25 04:33:22;;;;;;;75.05;35.45;;;3.70;99.90;;;;;;5032277;28;20040;-89
2022/01/25 04:49:31;;;;;;;75.70;34.25;;;3.60;99.90;;;;;;5020551;28;20521;-91
2022/01/25 04:52:03;;;;;;;79.75;35.50;;;3.70;99.90;;;;;;5032575;28;20077;-90
2022/01/25 04:54:54;;;;;;;83.97;37.60;;;3.70;99.90;;;;;;5040915;28;20079;-89
2022/01/25 05:00:05;;;;;;;79.72;36.17;;;3.60;99.90;;;;;;5035280;28;20136;-88
2022/01/25 05:05:07;;;;;;;81.60;35.55;;;3.70;99.90;;;;;;5048477;28;20132;-91
2022/01/25 05:09:59;;;;;;;83.00;35.40;;;3.60;99.90;;;;;;5034926;28;20052;-90
2022/01/25 05:12:53;;;;;;;85.90;37.65;;;3.70;99.90;;;;;;5030684;28;20073;-91
2022/01/25 05:15:27;;;;;;;85.72;37.63;;;3.70;99.90;;;;;;5044358;28;20049;-91
2022/01/25 05:23:33;;;;;;;82.43;36.00;;;3.60;99.90;;;;;;5036393;28;20101;-90
2022/01/25 05:26:01;;;;;;;77.80;35.47;;;3.60;99.90;;;;;;5035586;28;20483;-89
2022/01/25 05:28:31;;;;;;;79.05;35.67;;;3.60;99.90;;;;;;5051509;28;20052;-90
2022/01/25 05:30:59;;;;;;;81.63;35.97;;;3.70;99.90;;;;;;5047958;28;20053;-90
2022/01/25 05:33:25;;;;;;;80.40;37.22;;;3.60;99.90;;;;;;5034602;28;20076;-89
2022/01/25 05:35:53;;;;;;;84.00;36.35;;;3.60;99.90;;;;;;5050026;28;20482;-89
2022/01/25 05:38:21;;;;;;;82.07;37.20;;;3.60;99.90;;;;;;5037854;28;20045;-89
2022/01/25 05:40:58;;;;;;;82.80;34.80;;;3.70;99.90;;;;;;5053131;28;20065;-90
2022/01/25 05:46:11;;;;;;;82.97;35.37;;;3.70;99.90;;;;;;5054554;28;20088;-90
2022/01/25 05:48:40;;;;;;;82.53;35.80;;;3.60;99.90;;;;;;5055291;28;20049;-90
2022/01/25 05:51:06;;;;;;;84.53;36.67;;;3.60;99.90;;;;;;5035597;28;20053;-90
2022/01/25 05:53:33;;;;;;;83.55;36.65;;;3.60;99.90;;;;;;5021583;28;20206;-90
2022/01/25 05:55:59;;;;;;;84.57;35.33;;;3.60;99.90;;;;;;5037103;28;20057;-88
2022/01/25 05:58:25;;;;;;;76.15;34.88;;;3.60;99.90;;;;;;5035438;28;20056;-89
2022/01/25 06:00:51;;;;;;;86.00;38.75;;;3.60;99.90;;;;;;5031365;28;20079;-89
2022/01/25 06:03:19;;;;;;;81.70;36.72;;;3.60;99.90;;;;;;5043269;28;20419;-87
2022/01/25 06:05:48;;;;;;;82.07;35.95;;;3.70;99.90;;;;;;5015261;28;20042;-89
2022/01/25 06:08:13;;;;;;;78.38;35.72;;;3.60;99.90;;;;;;5017453;28;20049;-90
2022/01/25 06:10:42;;;;;;;83.43;36.95;;;3.70;99.90;;;;;;4986201;28;20045;-90
2022/01/25 06:13:08;;;;;;;77.03;34.25;;;3.60;99.90;;;;;;5014492;28;20041;-89
2022/01/25 06:15:34;;;;;;;80.90;35.92;;;3.60;99.90;;;;;;5003882;28;20506;-91
2022/01/25 06:18:00;;;;;;;79.72;35.35;;;3.60;99.90;;;;;;5011667;28;20049;-89
2022/01/25 06:20:28;;;;;;;77.15;35.13;;;3.70;99.90;;;;;;5009570;28;20045;-88
2022/01/25 06:22:55;;;;;;;82.32;35.22;;;3.60;99.90;;;;;;5010806;28;20124;-89
2022/01/25 06:25:21;;;;;;;81.85;34.95;;;3.70;99.90;;;;;;4987111;28;20041;-87
2022/01/25 06:27:49;;;;;;;80.35;34.63;;;3.60;99.90;;;;;;5003403;28;20076;-82
2022/01/25 06:30:17;;;;;;;77.55;34.70;;;3.60;99.90;;;;;;5022987;28;20044;-89
2022/01/25 06:32:45;;;;;;;87.35;37.35;;;3.70;99.90;;;;;;5013033;28;20037;-87
2022/01/25 06:35:11;;;;;;;79.80;35.50;;;3.70;99.90;;;;;;5006599;28;20071;-86
2022/01/25 06:37:37;;;;;;;79.75;34.10;;;3.70;99.90;;;;;;5017683;28;20056;-87
2022/01/25 06:40:07;;;;;;;78.57;35.97;;;3.60;99.90;;;;;;5025751;28;20046;-87
2022/01/25 06:42:34;;;;;;;78.97;35.38;;;3.60;99.90;;;;;;5014804;28;20044;-87
2022/01/25 06:45:03;;;;;;;81.35;35.63;;;3.60;99.90;;;;;;5022531;28;20049;-84
2022/01/25 06:47:29;;;;;;;78.03;34.08;;;3.60;99.90;;;;;;5001401;28;20068;-84
2022/01/25 06:49:56;;;;;;;81.90;35.15;;;3.70;99.90;;;;;;5014670;28;20052;-85
2022/01/25 06:52:23;;;;;;;75.68;33.45;;;3.60;99.90;;;;;;5022364;28;20064;-86
2022/01/25 06:54:49;;;;;;;80.38;36.42;;;3.60;99.90;;;;;;5018679;28;20129;-84
2022/01/25 06:57:15;;;;;;;83.40;35.30;;;3.60;99.90;;;;;;5017551;28;20132;-84
2022/01/25 06:59:40;;;;;;;80.95;35.70;;;3.60;99.90;;;;;;5053503;28;20072;-83
2022/01/25 07:02:07;;;;;;;83.53;35.80;;;3.60;99.90;;;;;;5054151;28;20498;-84
2022/01/25 07:04:32;;;;;;;82.05;36.47;;;3.60;99.90;;;;;;5053404;28;20073;-84
2022/01/25 07:06:58;;;;;;;75.30;33.30;;;3.60;99.90;;;;;;5053870;28;20103;-83
2022/01/25 07:09:24;;;;;;;85.03;37.05;;;3.70;99.90;;;;;;5037448;28;20112;-84
2022/01/25 07:11:50;;;;;;;83.80;36.13;;;3.70;99.90;;;;;;5053925;28;20052;-83
2022/01/25 07:14:15;;;;;;;78.72;35.55;;;3.70;99.90;;;;;;5054003;28;20045;-84
2022/01/25 07:16:41;;;;;;;80.25;35.50;;;3.70;99.90;;;;;;5036825;28;20044;-84
2022/01/25 07:19:06;;;;;;;82.05;34.22;;;3.70;99.90;;;;;;5037272;28;20052;-84
2022/01/25 07:21:32;;;;;;;86.65;36.88;;;3.60;99.90;;;;;;5020583;28;20041;-84
2022/01/25 07:23:58;;;;;;;76.05;33.15;;;3.60;99.90;;;;;;5049599;28;20506;-83
2022/01/25 07:26:24;;;;;;;85.88;36.65;;;3.80;99.90;;;;;;5033808;28;20045;-85
2022/01/25 07:28:49;;;;;;;80.70;35.42;;;3.60;99.90;;;;;;5020913;28;20040;-83
2022/01/25 07:31:15;;;;;;;86.75;36.28;;;3.70;99.90;;;;;;5021963;28;20053;-83
2022/01/25 07:33:41;;;;;;;86.90;36.67;;;3.70;99.90;;;;;;5024840;28;20116;-86
2022/01/25 07:36:07;;;;;;;87.95;36.88;;;3.70;99.90;;;;;;5032260;28;20132;-82
2022/01/25 07:38:32;;;;;;;82.90;34.28;;;3.70;99.90;;;;;;5034640;28;20045;-83
2022/01/25 07:40:59;;;;;;;82.80;35.58;;;3.70;99.90;;;;;;5020212;28;20541;-83
2022/01/25 07:43:25;;;;;;;84.40;34.45;;;3.80;99.90;;;;;;5036486;28;20052;-87
2022/01/25 07:45:53;;;;;;;82.05;35.10;;;3.70;99.90;;;;;;5053754;28;20048;-82
2022/01/25 07:48:19;;;;;;;84.05;35.00;;;3.70;99.90;;;;;;5019541;28;20482;-83
2022/01/25 07:50:45;;;;;;;87.90;35.15;;;3.70;99.90;;;;;;5048564;28;20475;-83
2022/01/25 07:53:11;;;;;;;82.43;35.88;;;3.80;99.90;;;;;;5041145;28;20103;-84
2022/01/25 07:55:37;;;;;;;79.32;34.45;;;3.70;99.90;;;;;;5071147;28;20124;-86
2022/01/25 07:58:03;;;;;;;80.22;35.88;;;3.70;99.90;;;;;;5029864;28;20080;-82
2022/01/25 08:00:29;;;;;;;83.82;34.58;;;3.70;99.90;;;;;;5052169;28;20114;-84
2022/01/25 08:02:55;;;;;;;82.07;33.13;;;3.70;99.90;;;;;;5016339;28;20507;-84
2022/01/25 08:05:24;;;;;;;86.93;35.40;;;3.70;99.90;;;;;;5037687;28;20084;-85
2022/01/25 08:07:50;;;;;;;84.32;36.50;;;3.70;99.90;;;;;;5051991;28;20044;-83
2022/01/25 08:10:16;;;;;;;85.22;35.83;;;3.70;99.90;;;;;;5051985;28;20049;-82
2022/01/25 08:12:42;;;;;;;79.07;33.92;;;3.80;99.90;;;;;;5051980;28;20128;-82
2022/01/25 08:15:09;;;;;;;82.47;34.38;;;3.80;99.90;;;;;;5035086;28;20137;-83
2022/01/25 08:17:35;;;;;;;83.40;35.70;;;3.80;99.90;;;;;;5018928;28;20131;-85
2022/01/25 08:20:01;;;;;;;76.70;34.30;;;3.80;99.90;;;;;;5026160;28;20124;-84
2022/01/25 08:22:27;;;;;;;83.47;36.00;;;3.80;99.90;;;;;;5064859;28;20044;-83
2022/01/25 08:24:53;;;;;;;78.53;35.25;;;3.80;99.90;;;;;;5032817;28;20124;-83
2022/01/25 08:27:20;;;;;;;83.95;34.40;;;3.80;99.90;;;;;;5056583;28;20095;-83
2022/01/25 08:29:50;;;;;;;82.60;34.85;;;3.80;99.90;;;;;;5009511;28;20039;-83
2022/01/25 08:32:16;;;;;;;77.63;35.22;;;3.80;99.90;;;;;;5051064;28;20049;-82
2022/01/25 08:34:42;;;;;;;78.78;34.55;;;3.80;99.90;;;;;;5035258;28;20045;-83
2022/01/25 08:37:07;;;;;;;79.03;34.17;;;3.80;99.90;;;;;;5052435;28;20045;-83
2022/01/25 08:39:33;;;;;;;79.18;33.97;;;3.80;99.90;;;;;;5035623;28;20045;-82
2022/01/25 08:41:59;;;;;;;81.97;34.35;;;3.90;99.90;;;;;;5027611;28;20099;-83
2022/01/25 08:44:25;;;;;;;78.28;33.72;;;3.90;99.90;;;;;;5035593;28;20482;-83
2022/01/25 08:46:51;;;;;;;79.50;34.33;;;3.90;99.90;;;;;;5034880;28;20638;-83
2022/01/25 08:49:17;;;;;;;80.38;34.97;;;3.90;99.90;;;;;;5068497;28;20517;-83
2022/01/25 08:51:43;;;;;;;83.65;35.58;;;3.90;99.90;;;;;;5018391;28;20037;-83
2022/01/25 08:54:11;;;;;;;80.18;33.97;;;3.90;99.90;;;;;;5019042;28;20088;-83
2022/01/25 08:56:37;;;;;;;75.10;33.13;;;4.00;99.90;;;;;;5054750;28;20041;-86
2022/01/25 08:59:02;;;;;;;80.43;34.20;;;3.90;99.90;;;;;;5039066;28;20128;-83
2022/01/25 09:01:28;;;;;;;78.65;34.63;;;4.00;99.90;;;;;;5049829;28;20087;-83
2022/01/25 09:03:54;;;;;;;76.43;34.70;;;4.10;99.90;;;;;;5054361;28;20124;-83
2022/01/25 09:06:20;;;;;;;84.10;34.05;;;4.00;99.90;;;;;;5047115;28;20045;-83
2022/01/25 09:08:46;;;;;;;78.25;35.22;;;4.00;99.90;;;;;;5001577;28;20203;-82
2022/01/25 09:11:12;;;;;;;81.82;35.65;;;4.00;99.90;;;;;;5035104;28;20099;-84
2022/01/25 09:13:39;;;;;;;79.13;33.83;;;4.00;99.90;;;;;;5018037;28;20070;-83
2022/01/25 09:16:07;;;;;;;78.40;34.47;;;4.00;99.90;;;;;;5034560;28;20049;-84
2022/01/25 09:18:32;;;;;;;75.85;32.13;;;3.90;99.90;;;;;;5033265;28;20049;-83
2022/01/25 09:20:58;;;;;;;82.07;34.45;;;4.00;99.90;;;;;;5051598;28;20107;-83
2022/01/25 09:23:25;;;;;;;77.32;33.05;;;4.00;99.90;;;;;;5024738;28;20059;-84
2022/01/25 09:25:52;;;;;;;81.03;34.72;;;4.00;99.90;;;;;;5068172;28;20099;-85
2022/01/25 09:28:18;;;;;;;83.78;34.92;;;4.10;99.90;;;;;;5031233;28;20081;-83
2022/01/25 09:30:45;;;;;;;81.53;34.45;;;4.00;99.90;;;;;;5051534;28;20492;-84
2022/01/25 09:33:11;;;;;;;81.22;34.92;;;4.10;99.90;;;;;;5048244;28;20040;-83
2022/01/25 09:35:37;;;;;;;81.90;35.85;;;4.10;99.90;;;;;;5050804;28;20097;-88
2022/01/25 09:38:03;;;;;;;78.95;32.72;;;4.00;99.90;;;;;;5048420;28;20052;-84
2022/01/25 09:40:29;;;;;;;80.45;33.72;;;4.00;99.90;;;;;;5046895;28;20084;-83
2022/01/25 09:42:57;;;;;;;78.00;34.88;;;4.10;99.90;;;;;;5046941;28;20059;-84
2022/01/25 09:45:24;;;;;;;82.45;33.63;;;4.10;99.90;;;;;;5017634;28;20045;-84
2022/01/25 09:47:52;;;;;;;79.70;33.58;;;4.10;99.90;;;;;;5047522;28;20045;-85
2022/01/25 09:50:19;;;;;;;81.25;33.95;;;4.10;99.90;;;;;;5032407;28;20041;-84
2022/01/25 09:52:45;;;;;;;82.15;35.22;;;4.10;99.90;;;;;;5054342;28;20044;-85
2022/01/25 09:55:14;;;;;;;77.13;31.77;;;4.10;99.90;;;;;;5049951;28;20498;-86
2022/01/25 09:57:40;;;;;;;81.63;34.10;;;4.00;99.90;;;;;;5046715;28;20051;-88
2022/01/25 10:00:09;;;;;;;82.68;35.97;;;4.10;99.90;;;;;;5066079;28;20401;-84
2022/01/25 10:02:51;;;;;;;81.13;33.60;;;4.10;99.90;;;;;;5052510;28;20045;-85
2022/01/25 10:05:38;;;;;;;78.80;31.88;;;4.20;99.90;;;;;;5048509;28;20045;-84
2022/01/25 10:08:12;;;;;;;88.20;36.85;;;4.10;99.90;;;;;;5045822;28;20044;-83
2022/01/25 10:10:43;;;;;;;83.68;33.03;;;4.10;99.90;;;;;;5087294;28;20044;-83
2022/01/25 10:13:22;;;;;;;82.80;34.13;;;4.10;99.90;;;;;;5057880;28;20383;-83
2022/01/25 10:16:17;;;;;;;81.93;32.33;;;4.10;99.90;;;;;;5053626;28;20046;-84
2022/01/25 10:18:58;;;;;;;85.60;34.58;;;4.10;99.90;;;;;;5050860;28;20071;-84
2022/01/25 10:21:27;;;;;;;77.82;32.03;;;4.00;99.90;;;;;;5037713;28;20491;-84
2022/01/25 10:24:01;;;;;;;81.82;34.35;;;4.00;99.90;;;;;;5050409;28;20107;-82
2022/01/25 10:26:39;;;;;;;85.40;36.10;;;4.00;99.90;;;;;;5065664;28;20494;-82
2022/01/25 10:29:06;;;;;;;80.40;34.10;;;4.00;99.90;;;;;;5054905;28;20049;-84
2022/01/25 10:31:40;;;;;;;81.80;32.97;;;4.00;99.90;;;;;;5063911;28;20044;-83
2022/01/25 10:34:08;;;;;;;86.75;34.25;;;4.10;99.90;;;;;;5074029;28;20044;-83
2022/01/25 10:36:38;;;;;;;89.90;35.50;;;4.10;99.90;;;;;;5057258;28;20045;-83
2022/01/25 10:39:04;;;;;;;84.40;34.88;;;4.10;99.90;;;;;;5046414;28;20481;-85
2022/01/25 10:41:31;;;;;;;87.60;33.50;;;4.10;99.90;;;;;;5073013;28;20123;-83
2022/01/25 10:43:58;;;;;;;81.90;34.08;;;4.10;99.90;;;;;;5027936;28;20115;-84
2022/01/25 10:46:33;;;;;;;84.15;33.85;;;4.10;99.90;;;;;;5054554;28;20102;-83
2022/01/25 10:49:08;;;;;;;87.28;36.97;;;4.00;99.90;;;;;;5050542;28;20088;-85
2022/01/25 10:51:42;;;;;;;85.72;35.17;;;4.00;99.90;;;;;;5078036;28;20042;-84
2022/01/25 10:54:24;;;;;;;88.97;35.55;;;4.00;99.90;;;;;;5050097;28;20111;-83
2022/01/25 10:56:59;;;;;;;86.78;35.40;;;4.00;99.90;;;;;;5048210;28;20037;-83
2022/01/25 10:59:28;;;;;;;83.97;34.50;;;4.00;99.90;;;;;;5064607;28;20081;-85
2022/01/25 11:01:57;;;;;;;84.03;34.22;;;4.00;99.90;;;;;;5041349;28;20045;-83
2022/01/25 11:04:39;;;;;;;87.68;35.85;;;4.10;99.90;;;;;;5054082;28;20095;-84
2022/01/25 11:07:07;;;;;;;84.70;34.47;;;4.10;99.90;;;;;;5050515;28;20056;-83
2022/01/25 11:09:43;;;;;;;87.07;34.90;;;4.10;99.90;;;;;;5046857;28;20072;-84
2022/01/25 11:12:13;;;;;;;85.43;35.22;;;4.10;99.90;;;;;;5053798;28;20131;-84
2022/01/25 11:14:56;;;;;;;87.22;35.03;;;4.10;99.90;;;;;;5041923;28;20044;-84
2022/01/25 11:17:32;;;;;;;84.60;35.67;;;4.10;99.90;;;;;;5043069;28;20131;-83
2022/01/25 11:19:59;;;;;;;92.32;34.80;;;4.10;99.90;;;;;;5056641;28;20495;-84
2022/01/25 11:22:26;;;;;;;83.60;35.63;;;4.10;99.90;;;;;;5041458;28;20401;-84
2022/01/25 11:24:59;;;;;;;88.75;36.08;;;4.20;99.90;;;;;;5056458;28;20044;-84
2022/01/25 11:27:27;;;;;;;85.10;34.28;;;4.20;99.90;;;;;;5046759;28;20103;-82
2022/01/25 11:29:55;;;;;;;87.47;35.00;;;4.20;99.90;;;;;;5052883;28;20056;-84
2022/01/25 11:32:25;;;;;;;91.10;35.28;;;4.20;99.90;;;;;;5050049;28;20050;-83
2022/01/25 11:34:52;;;;;;;87.35;35.15;;;4.20;99.90;;;;;;5024602;28;20051;-84
2022/01/25 11:37:18;;;;;;;85.25;35.28;;;4.20;99.90;;;;;;5036770;28;20052;-84
2022/01/25 11:39:48;;;;;;;81.15;36.10;;;4.30;99.90;;;;;;5053424;28;20049;-84
2022/01/25 11:42:36;;;;;;;83.68;36.15;;;4.30;99.90;;;;;;5053474;28;20103;-84
2022/01/25 11:45:05;;;;;;;81.10;34.38;;;4.20;99.90;;;;;;5034661;28;20504;-85
2022/01/25 11:47:37;;;;;;;82.68;35.05;;;4.20;99.90;;;;;;5068041;28;20386;-87
2022/01/25 11:50:09;;;;;;;88.90;36.03;;;4.30;99.90;;;;;;5060527;28;20041;-85
2022/01/25 11:52:36;;;;;;;91.28;34.97;;;4.20;99.90;;;;;;5065898;28;20040;-85
2022/01/25 11:55:23;;;;;;;87.80;35.05;;;4.30;99.90;;;;;;5053306;28;20055;-84
2022/01/25 11:58:03;;;;;;;82.65;35.08;;;4.30;99.90;;;;;;5032200;28;20124;-82
2022/01/25 12:00:49;;;;;;;84.20;33.38;;;4.30;99.90;;;;;;5037384;28;20053;-84
2022/01/25 12:03:32;;;;;;;83.28;33.65;;;4.30;99.90;;;;;;5053939;28;20048;-84
2022/01/25 12:06:12;;;;;;;80.28;34.13;;;4.30;99.90;;;;;;5071519;28;20052;-84
2022/01/25 12:11:44;;;;;;;80.65;33.53;;;4.20;99.90;;;;;;5052474;28;20055;-84
2022/01/25 12:14:36;;;;;;;88.32;34.90;;;4.20;99.90;;;;;;5049583;28;20072;-84
2022/01/25 12:17:01;;;;;;;87.15;36.47;;;4.20;99.90;;;;;;5049391;28;20388;-84
2022/01/25 12:19:30;;;;;;;87.00;33.92;;;4.20;99.90;;;;;;5046375;28;20041;-83
2022/01/25 12:22:18;;;;;;;92.70;36.72;;;4.20;99.90;;;;;;5052300;28;20509;-86
2022/01/25 12:24:47;;;;;;;88.53;35.85;;;4.20;99.90;;;;;;5026398;28;20507;-83
2022/01/25 12:29:58;;;;;;;94.15;36.20;;;4.30;99.90;;;;;;5046789;28;20049;-83
2022/01/25 12:32:28;;;;;;;83.00;33.35;;;4.20;99.90;;;;;;5049124;28;20049;-82
2022/01/25 12:34:59;;;;;;;86.05;32.28;;;4.20;99.90;;;;;;5055581;28;20499;-83
2022/01/25 12:37:43;;;;;;;95.72;35.65;;;4.10;99.90;;;;;;5026339;28;20102;-85
2022/01/25 12:40:25;;;;;;;88.85;35.17;;;4.10;99.90;;;;;;5058968;28;20100;-83
2022/01/25 12:42:58;;;;;;;94.68;36.30;;;4.10;99.90;;;;;;5032885;28;20050;-82
2022/01/25 12:45:27;;;;;;;91.63;36.88;;;4.10;99.90;;;;;;5048760;28;20099;-83
2022/01/25 12:48:00;;;;;;;89.03;34.63;;;4.10;99.90;;;;;;5031707;28;20483;-83
2022/01/25 12:50:27;;;;;;;91.80;36.22;;;4.10;99.90;;;;;;5043764;28;20041;-83
2022/01/25 12:52:53;;;;;;;90.88;35.78;;;4.10;99.90;;;;;;5036060;28;20050;-82
2022/01/25 12:55:25;;;;;;;92.15;37.65;;;4.10;99.90;;;;;;5032326;28;20045;-83
2022/01/25 12:57:53;;;;;;;90.65;35.85;;;4.10;99.90;;;;;;5033616;28;20064;-83
2022/01/25 13:00:19;;;;;;;89.10;35.75;;;4.10;99.90;;;;;;5048627;28;20426;-82
2022/01/25 13:02:45;;;;;;;86.90;35.22;;;4.10;99.90;;;;;;5049044;28;20067;-83
2022/01/25 13:05:22;;;;;;;84.70;34.60;;;4.00;99.90;;;;;;5051873;28;20041;-84
2022/01/25 13:07:48;;;;;;;91.75;35.97;;;4.10;99.90;;;;;;5051733;28;20509;-82
2022/01/25 13:10:25;;;;;;;96.05;37.33;;;4.10;99.90;;;;;;5051906;28;20045;-82
2022/01/25 13:12:57;;;;;;;87.80;36.78;;;4.00;99.90;;;;;;5056182;28;20048;-82
2022/01/25 13:16:13;;;;;;;85.63;35.75;;;4.00;99.90;;;;;;5056127;28;20082;-82
2022/01/25 13:18:28;;;;;;;90.45;36.38;;;4.10;99.90;;;;;;5054026;28;20059;-83
2022/01/25 13:21:04;;;;;;;93.35;36.53;;;4.10;99.90;;;;;;5055512;28;20056;-82
2022/01/25 13:23:31;;;;;;;91.78;37.03;;;4.10;99.90;;;;;;5072246;28;20052;-82
2022/01/25 13:26:10;;;;;;;87.30;35.72;;;4.20;99.90;;;;;;5035681;28;20053;-82
2022/01/25 13:28:51;;;;;;;84.45;35.33;;;4.20;99.90;;;;;;5004937;28;20081;-84
2022/01/25 13:31:19;;;;;;;93.97;35.60;;;4.20;99.90;;;;;;5052326;28;20053;-83
2022/01/25 13:33:47;;;;;;;90.10;35.63;;;4.30;99.90;;;;;;5045863;28;20508;-83
2022/01/25 13:36:20;;;;;;;80.72;32.63;;;4.20;99.90;;;;;;5048739;28;20083;-83
2022/01/25 13:38:46;;;;;;;78.97;31.55;;;4.30;99.90;;;;;;5050759;28;20491;-83
2022/01/25 13:46:25;;;;;;;91.10;34.95;;;4.20;99.90;;;;;;5051766;28;20053;-84
2022/01/25 13:48:54;;;;;;;87.05;34.00;;;4.20;99.90;;;;;;5055066;28;20056;-83
2022/01/25 13:51:23;;;;;;;79.05;28.73;;;4.20;99.90;;;;;;5045247;28;20052;-83
2022/01/25 13:53:58;;;;;;;85.85;32.30;;;4.20;99.90;;;;;;5060288;28;20060;-85
2022/01/25 13:56:27;;;;;;;84.95;33.28;;;4.20;99.90;;;;;;5040448;28;20077;-82
2022/01/25 13:58:53;;;;;;;81.95;33.50;;;4.20;99.90;;;;;;5047607;28;20044;-83
2022/01/25 14:01:21;;;;;;;86.38;35.25;;;4.20;99.90;;;;;;5058509;28;20075;-83
2022/01/25 14:04:02;;;;;;;86.40;35.63;;;4.30;99.90;;;;;;5041805;28;20052;-84
2022/01/25 14:06:42;;;;;;;84.07;33.35;;;4.20;99.90;;;;;;5058506;28;20055;-83
2022/01/25 14:09:31;;;;;;;90.70;33.83;;;4.20;99.90;;;;;;5038288;28;20045;-83
2022/01/25 14:25:43;;;;;;;89.13;35.22;;;4.10;99.90;;;;;;5037971;28;20525;-84
2022/01/25 14:28:16;;;;;;;87.60;35.65;;;4.10;99.90;;;;;;5022215;28;20523;-83
2022/01/25 14:30:48;;;;;;;86.22;33.25;;;4.20;99.90;;;;;;5051860;28;20402;-84
2022/01/25 14:33:17;;;;;;;90.32;34.75;;;4.10;99.90;;;;;;5057861;28;20041;-83
2022/01/25 14:36:08;;;;;;;89.82;33.63;;;4.20;99.90;;;;;;5014451;28;20059;-83
2022/01/25 14:38:39;;;;;;;91.05;35.10;;;4.10;99.90;;;;;;5037512;28;20091;-82
2022/01/25 14:41:11;;;;;;;85.07;33.65;;;4.10;99.90;;;;;;5038198;28;20133;-89
2022/01/25 14:43:45;;;;;;;91.00;34.78;;;4.10;99.90;;;;;;5054400;28;20486;-84
2022/01/25 14:46:22;;;;;;;89.43;33.80;;;4.20;99.90;;;;;;5074121;28;20063;-83
2022/01/25 14:49:13;;;;;;;82.63;33.00;;;4.10;99.90;;;;;;5041130;28;20138;-83
2022/01/25 14:51:45;;;;;;;84.80;33.25;;;4.10;99.90;;;;;;5029498;28;20513;-83
2022/01/25 14:54:14;;;;;;;87.82;34.50;;;4.10;99.90;;;;;;5036559;28;20083;-85
2022/01/25 14:56:49;;;;;;;88.43;32.78;;;4.00;99.90;;;;;;5040816;28;20056;-84
2022/01/25 14:59:24;;;;;;;91.88;34.05;;;4.10;99.90;;;;;;5034257;28;20048;-84
2022/01/25 15:02:04;;;;;;;82.72;31.88;;;4.00;99.90;;;;;;5054014;28;20056;-83